Time;durP1;ratioP1;P1;durP2;ratioP2;P2;SDS_P1;SDS_P2;PMS_P1;PMS_P2;Temp;Humidity;BMP_temperature;BMP_pressure;BME280_temperature;BME280_humidity;BME280_pressure;Samples;Min_cycle;Max_cycle;Signal;HPM_P1;HPM_P2
2024/03/16 00:00:18;;;;;;;9.57;2.78;;;12.10;99.90;;;;;;5012464;28;20549;-71
2024/03/16 00:02:44;;;;;;;17.13;5.78;;;12.10;99.90;;;;;;5011681;28;20400;-71
2024/03/16 00:05:11;;;;;;;11.80;4.28;;;12.10;99.90;;;;;;5014874;28;20121;-72
2024/03/16 00:07:38;;;;;;;9.25;2.92;;;12.10;99.90;;;;;;5012468;28;20053;-72
2024/03/16 00:10:06;;;;;;;12.43;3.90;;;12.10;99.90;;;;;;5011617;28;20119;-71
2024/03/16 00:12:34;;;;;;;11.60;4.28;;;12.10;99.90;;;;;;4995077;28;20439;-72
2024/03/16 00:15:01;;;;;;;13.85;5.20;;;12.00;99.90;;;;;;5012827;28;20046;-71
2024/03/16 00:17:28;;;;;;;13.65;4.18;;;12.10;99.90;;;;;;5012671;28;20483;-71
2024/03/16 00:19:55;;;;;;;16.50;4.30;;;12.10;99.90;;;;;;5011273;28;20073;-71
2024/03/16 00:22:22;;;;;;;13.32;4.75;;;12.10;99.90;;;;;;5012976;28;20045;-72
2024/03/16 00:24:49;;;;;;;15.30;3.88;;;12.10;99.90;;;;;;5011462;28;20066;-72
2024/03/16 00:27:18;;;;;;;10.85;5.50;;;12.00;99.90;;;;;;5011558;28;20052;-72
2024/03/16 00:29:45;;;;;;;15.63;6.05;;;12.00;99.90;;;;;;5010575;28;20058;-71
2024/03/16 00:32:12;;;;;;;14.35;3.85;;;12.00;99.90;;;;;;5011585;28;20046;-72
2024/03/16 00:34:39;;;;;;;13.02;4.32;;;12.00;99.90;;;;;;5011258;28;20143;-72
2024/03/16 00:37:06;;;;;;;7.97;3.55;;;12.00;99.90;;;;;;5012507;28;20120;-72
2024/03/16 00:39:34;;;;;;;16.70;6.00;;;12.00;99.90;;;;;;5012630;28;20116;-71
2024/03/16 00:42:02;;;;;;;17.08;4.50;;;12.00;99.90;;;;;;4995398;28;20046;-72
2024/03/16 00:44:29;;;;;;;13.63;4.03;;;12.00;99.90;;;;;;5011658;28;20045;-72
2024/03/16 00:46:56;;;;;;;9.75;5.47;;;11.90;99.90;;;;;;5011140;28;20406;-71
2024/03/16 00:49:24;;;;;;;17.75;5.57;;;11.90;99.90;;;;;;4995156;28;20052;-71
2024/03/16 00:51:51;;;;;;;9.00;4.40;;;11.90;99.90;;;;;;5010971;28;20458;-72
2024/03/16 00:54:18;;;;;;;16.95;5.72;;;11.90;99.90;;;;;;5012486;28;20495;-72
2024/03/16 00:56:46;;;;;;;19.88;4.75;;;11.90;99.90;;;;;;5011011;28;20038;-71
2024/03/16 00:59:13;;;;;;;15.18;5.07;;;11.90;99.90;;;;;;5011212;28;20446;-72
2024/03/16 01:01:40;;;;;;;12.18;4.50;;;11.90;99.90;;;;;;5011088;28;20049;-72
2024/03/16 01:04:07;;;;;;;17.55;5.32;;;11.90;99.90;;;;;;5011545;28;20042;-71
2024/03/16 01:06:35;;;;;;;13.10;4.05;;;11.80;99.90;;;;;;4994990;28;20492;-72
2024/03/16 01:09:02;;;;;;;14.88;4.80;;;11.80;99.90;;;;;;5010891;28;20049;-72
2024/03/16 01:11:30;;;;;;;22.45;8.75;;;11.70;99.90;;;;;;5013924;28;20041;-72
2024/03/16 01:13:57;;;;;;;18.25;7.28;;;11.50;99.90;;;;;;5016029;28;20438;-72
2024/03/16 01:16:25;;;;;;;15.00;7.30;;;11.40;99.90;;;;;;4998559;28;20589;-72
2024/03/16 01:18:52;;;;;;;12.18;4.85;;;11.30;99.90;;;;;;5014957;28;20089;-73
2024/03/16 01:21:19;;;;;;;9.50;3.35;;;11.20;99.90;;;;;;5015977;28;20042;-72
2024/03/16 01:23:46;;;;;;;15.32;5.32;;;11.10;99.90;;;;;;5014971;28;20046;-72
2024/03/16 01:26:13;;;;;;;16.85;5.03;;;11.00;99.90;;;;;;5014678;28;20054;-72
2024/03/16 01:28:40;;;;;;;20.23;5.55;;;11.00;99.90;;;;;;5014505;28;20074;-72
2024/03/16 01:31:08;;;;;;;17.35;6.03;;;10.90;99.90;;;;;;5015680;28;20376;-72
2024/03/16 01:33:39;;;;;;;13.32;4.72;;;10.90;99.90;;;;;;5014616;28;20038;-72
2024/03/16 01:36:07;;;;;;;11.10;4.15;;;10.90;99.90;;;;;;5014526;28;20491;-72
2024/03/16 01:38:36;;;;;;;16.05;7.32;;;10.90;99.90;;;;;;5015740;28;20388;-72
2024/03/16 01:41:03;;;;;;;18.83;5.93;;;10.80;99.90;;;;;;5015802;28;20092;-72
2024/03/16 01:43:30;;;;;;;9.65;5.80;;;10.80;99.90;;;;;;5014546;28;20447;-72
2024/03/16 01:45:58;;;;;;;19.13;5.72;;;10.80;99.90;;;;;;4998202;28;20042;-72
2024/03/16 01:48:25;;;;;;;17.98;5.32;;;10.80;99.90;;;;;;5015836;28;20046;-72
2024/03/16 01:50:54;;;;;;;11.25;3.92;;;10.80;99.90;;;;;;5015365;28;20132;-72
2024/03/16 01:53:21;;;;;;;12.25;5.95;;;10.80;99.90;;;;;;5015666;28;20049;-72
2024/03/16 01:55:48;;;;;;;12.93;5.40;;;10.80;99.90;;;;;;4997738;28;20121;-72
2024/03/16 01:58:15;;;;;;;20.38;7.05;;;10.80;99.90;;;;;;5015560;28;20029;-72
2024/03/16 02:00:47;;;;;;;17.63;5.72;;;10.80;99.90;;;;;;5014162;28;20077;-72
2024/03/16 02:03:14;;;;;;;14.65;7.45;;;10.80;99.90;;;;;;5014197;28;20068;-72
2024/03/16 02:05:41;;;;;;;22.88;8.52;;;10.80;99.90;;;;;;4997944;28;20395;-72
2024/03/16 02:08:08;;;;;;;16.58;7.63;;;10.90;99.90;;;;;;4997870;28;20545;-72
2024/03/16 02:10:35;;;;;;;16.45;8.10;;;10.80;99.90;;;;;;5013920;28;20097;-72
2024/03/16 02:13:03;;;;;;;16.38;7.28;;;10.70;99.90;;;;;;5015009;28;20117;-72
2024/03/16 02:15:30;;;;;;;13.48;6.05;;;10.70;99.90;;;;;;5013873;28;20046;-72
2024/03/16 02:17:58;;;;;;;27.33;9.60;;;10.70;99.90;;;;;;5013848;28;20042;-72
2024/03/16 02:20:26;;;;;;;28.50;7.80;;;10.70;99.90;;;;;;5013734;28;20045;-72
2024/03/16 02:22:53;;;;;;;18.92;6.82;;;10.70;99.90;;;;;;5014126;28;20080;-72
2024/03/16 02:25:22;;;;;;;22.38;8.55;;;10.70;99.90;;;;;;5015051;28;20050;-72
2024/03/16 02:27:49;;;;;;;26.25;9.38;;;10.70;99.90;;;;;;5013839;28;20392;-72
2024/03/16 02:30:16;;;;;;;18.70;7.05;;;10.70;99.90;;;;;;5013519;28;20050;-73
2024/03/16 02:32:43;;;;;;;18.17;6.25;;;10.70;99.90;;;;;;5013406;28;20111;-72
2024/03/16 02:35:10;;;;;;;21.60;6.13;;;10.70;99.90;;;;;;5014542;28;20052;-73
2024/03/16 02:37:37;;;;;;;15.55;9.13;;;10.70;99.90;;;;;;5013313;28;20446;-73
2024/03/16 02:40:05;;;;;;;14.32;5.25;;;10.70;99.90;;;;;;5013116;28;20107;-73
2024/03/16 02:42:32;;;;;;;15.23;6.10;;;10.70;99.90;;;;;;5014757;28;20053;-72
2024/03/16 02:44:59;;;;;;;20.58;5.43;;;10.60;99.90;;;;;;5012821;28;20045;-72
2024/03/16 02:47:26;;;;;;;11.07;4.07;;;10.60;99.90;;;;;;5013436;28;20050;-72
2024/03/16 02:49:53;;;;;;;12.40;4.13;;;10.50;99.90;;;;;;5013328;28;20054;-73
2024/03/16 02:52:20;;;;;;;10.65;3.47;;;10.40;99.90;;;;;;5012958;28;20115;-72
2024/03/16 02:54:47;;;;;;;7.75;3.55;;;10.40;99.90;;;;;;5014425;28;20122;-72
2024/03/16 02:57:14;;;;;;;16.58;4.63;;;10.30;99.90;;;;;;5012765;28;20041;-73
2024/03/16 02:59:41;;;;;;;7.30;3.58;;;10.30;99.90;;;;;;4996923;28;20491;-72
2024/03/16 03:02:08;;;;;;;6.40;3.45;;;10.20;99.90;;;;;;5012729;28;20447;-72
2024/03/16 03:04:35;;;;;;;4.80;2.63;;;10.20;99.90;;;;;;5013172;28;20037;-72
2024/03/16 03:07:04;;;;;;;5.85;3.20;;;10.10;99.90;;;;;;5012672;28;20077;-72
2024/03/16 03:09:33;;;;;;;3.22;2.55;;;10.00;99.90;;;;;;5013003;28;20092;-72
2024/03/16 03:12:00;;;;;;;6.45;3.33;;;10.00;99.90;;;;;;5012419;28;20054;-73
2024/03/16 03:14:27;;;;;;;3.35;2.72;;;10.00;99.90;;;;;;5013942;28;20475;-73
2024/03/16 03:16:54;;;;;;;1.92;1.20;;;9.90;99.90;;;;;;5013913;28;20549;-72
2024/03/16 03:19:21;;;;;;;2.72;1.80;;;9.90;99.90;;;;;;4996158;28;20046;-72
2024/03/16 03:21:48;;;;;;;2.17;1.80;;;9.70;99.90;;;;;;4996492;28;20049;-73
2024/03/16 03:24:15;;;;;;;3.17;2.05;;;9.70;99.90;;;;;;5012405;28;20044;-72
2024/03/16 03:26:42;;;;;;;4.35;1.67;;;9.60;99.90;;;;;;5013675;28;20045;-72
2024/03/16 03:29:09;;;;;;;3.53;1.83;;;9.50;99.90;;;;;;5013343;28;20512;-72
2024/03/16 03:31:36;;;;;;;3.17;2.50;;;9.50;99.90;;;;;;5013648;28;20464;-72
2024/03/16 03:34:03;;;;;;;5.20;2.25;;;9.40;99.90;;;;;;5011966;28;20050;-72
2024/03/16 03:36:30;;;;;;;3.15;2.10;;;9.30;99.90;;;;;;5011743;28;20137;-72
2024/03/16 03:38:57;;;;;;;2.78;1.70;;;9.30;99.90;;;;;;5012199;28;20049;-72
2024/03/16 03:41:27;;;;;;;3.72;2.20;;;9.20;99.90;;;;;;5012310;28;20475;-72
2024/03/16 03:44:09;;;;;;;3.42;1.70;;;9.20;99.90;;;;;;4996240;28;20042;-72
2024/03/16 03:46:50;;;;;;;1.83;1.63;;;9.10;99.90;;;;;;5012435;28;20045;-72
2024/03/16 03:49:31;;;;;;;3.38;2.22;;;9.10;99.90;;;;;;5013070;28;20399;-72
2024/03/16 03:51:59;;;;;;;1.50;1.35;;;9.00;99.90;;;;;;5012071;28;20077;-73
2024/03/16 03:54:28;;;;;;;1.95;1.25;;;9.00;99.90;;;;;;4996144;28;20115;-72
2024/03/16 03:56:55;;;;;;;2.85;1.25;;;8.90;99.90;;;;;;4995869;28;20057;-72
2024/03/16 03:59:22;;;;;;;1.70;1.60;;;9.10;99.90;;;;;;5012893;28;20049;-72
2024/03/16 04:01:49;;;;;;;4.35;2.20;;;8.90;99.90;;;;;;4978196;28;20049;-72
2024/03/16 04:04:16;;;;;;;3.72;1.77;;;8.80;99.90;;;;;;5044360;28;20037;-72
2024/03/16 04:06:45;;;;;;;1.88;0.70;;;9.00;99.90;;;;;;5012916;28;20487;-72
2024/03/16 04:09:12;;;;;;;2.30;1.10;;;8.80;99.90;;;;;;5012810;28;20049;-72
2024/03/16 04:11:39;;;;;;;1.20;0.90;;;8.80;99.90;;;;;;5012994;28;20046;-72
2024/03/16 04:14:07;;;;;;;1.48;1.10;;;8.80;99.90;;;;;;5011595;28;20061;-72
2024/03/16 04:16:34;;;;;;;2.70;1.17;;;8.70;99.90;;;;;;5011577;28;20085;-72
2024/03/16 04:19:02;;;;;;;2.30;1.23;;;8.70;99.90;;;;;;5012899;28;20101;-73
2024/03/16 04:21:30;;;;;;;2.60;1.05;;;8.70;99.90;;;;;;5012660;28;20042;-72
2024/03/16 04:23:57;;;;;;;4.47;1.27;;;8.70;99.90;;;;;;5011720;28;20069;-72
2024/03/16 04:26:24;;;;;;;2.63;1.35;;;8.70;99.90;;;;;;5012644;28;20065;-72
2024/03/16 04:28:51;;;;;;;6.25;1.58;;;8.70;99.90;;;;;;5011254;28;20049;-72
2024/03/16 04:31:18;;;;;;;3.17;1.50;;;8.70;99.90;;;;;;5011385;28;20046;-72
2024/03/16 04:33:45;;;;;;;3.17;2.80;;;8.70;99.90;;;;;;5011789;28;20442;-72
2024/03/16 04:36:12;;;;;;;5.22;1.63;;;8.60;99.90;;;;;;5011316;28;20092;-72
2024/03/16 04:38:40;;;;;;;3.88;1.67;;;8.60;99.90;;;;;;4995473;28;20069;-72
2024/03/16 04:41:07;;;;;;;4.30;1.67;;;8.60;99.90;;;;;;5012690;28;20045;-72
2024/03/16 04:43:34;;;;;;;4.57;2.20;;;8.60;99.90;;;;;;5011261;28;20074;-72
2024/03/16 04:46:01;;;;;;;2.78;1.80;;;8.50;99.90;;;;;;5013121;28;20100;-72
2024/03/16 04:48:28;;;;;;;2.78;1.50;;;8.40;99.90;;;;;;5015294;28;20056;-72
2024/03/16 04:50:56;;;;;;;4.75;2.08;;;8.40;99.90;;;;;;5016704;28;20045;-72
2024/03/16 04:53:23;;;;;;;12.15;2.60;;;8.30;99.90;;;;;;5016481;28;20050;-72
2024/03/16 04:55:52;;;;;;;9.20;2.22;;;8.30;99.90;;;;;;5016618;28;20056;-72
2024/03/16 04:58:19;;;;;;;10.18;2.60;;;8.30;99.90;;;;;;4998704;28;20141;-72
2024/03/16 05:00:46;;;;;;;6.75;3.63;;;8.30;99.90;;;;;;5016624;28;20391;-71
2024/03/16 05:03:13;;;;;;;6.82;2.92;;;8.30;99.90;;;;;;5015216;28;20038;-72
2024/03/16 05:05:40;;;;;;;7.72;3.03;;;8.30;99.90;;;;;;5016450;28;20042;-72
2024/03/16 05:08:07;;;;;;;3.90;1.98;;;8.30;99.90;;;;;;5015017;28;20049;-72
2024/03/16 05:10:34;;;;;;;4.38;2.28;;;8.30;99.90;;;;;;4998768;28;20223;-72
2024/03/16 05:13:02;;;;;;;9.23;3.97;;;8.20;99.90;;;;;;4998913;28;20401;-72
2024/03/16 05:15:29;;;;;;;11.20;3.63;;;8.10;99.90;;;;;;5014906;28;20061;-72
2024/03/16 05:17:57;;;;;;;12.98;3.13;;;8.10;99.90;;;;;;5014842;28;20434;-72
2024/03/16 05:20:25;;;;;;;8.07;2.17;;;8.10;99.90;;;;;;5014792;28;20585;-72
2024/03/16 05:22:52;;;;;;;15.23;2.90;;;8.30;99.90;;;;;;5016559;28;20530;-72
2024/03/16 05:25:19;;;;;;;10.45;3.08;;;8.00;99.90;;;;;;5014434;28;20046;-72
2024/03/16 05:27:46;;;;;;;9.45;4.00;;;7.90;99.90;;;;;;4998544;28;20119;-72
2024/03/16 05:30:15;;;;;;;10.48;2.35;;;7.90;99.90;;;;;;5016047;28;20038;-72
2024/03/16 05:32:42;;;;;;;6.93;1.65;;;7.90;99.90;;;;;;5014691;28;20050;-72
2024/03/16 05:35:10;;;;;;;11.43;2.30;;;7.80;99.90;;;;;;5014660;28;20071;-72
2024/03/16 05:37:37;;;;;;;7.35;2.17;;;7.80;99.90;;;;;;5015511;28;20530;-72
2024/03/16 05:40:04;;;;;;;19.25;4.32;;;7.80;99.90;;;;;;4998356;28;20046;-73
2024/03/16 05:42:34;;;;;;;10.43;3.70;;;7.70;99.90;;;;;;5015601;28;20038;-72
2024/03/16 05:45:01;;;;;;;5.28;2.03;;;7.70;99.90;;;;;;5014642;28;20509;-72
2024/03/16 05:47:28;;;;;;;9.43;2.00;;;7.70;99.90;;;;;;5015302;28;20041;-72
2024/03/16 05:49:56;;;;;;;6.28;1.60;;;7.90;99.90;;;;;;5014368;28;20042;-72
2024/03/16 05:52:22;;;;;;;9.68;2.17;;;7.60;99.90;;;;;;5014031;28;20081;-72
2024/03/16 05:54:49;;;;;;;4.93;2.25;;;7.60;99.90;;;;;;5014248;28;20517;-72
2024/03/16 05:57:17;;;;;;;9.25;2.17;;;7.60;99.90;;;;;;5014961;28;20048;-72
2024/03/16 05:59:43;;;;;;;9.23;2.63;;;7.60;99.90;;;;;;4997117;28;20487;-72
2024/03/16 06:02:10;;;;;;;6.45;1.55;;;7.60;99.90;;;;;;5012498;28;20050;-72
2024/03/16 06:04:37;;;;;;;2.40;1.33;;;7.60;99.90;;;;;;5013405;28;20054;-72
2024/03/16 06:07:04;;;;;;;5.18;1.80;;;7.60;99.90;;;;;;4997064;28;20069;-72
2024/03/16 06:09:31;;;;;;;7.10;1.33;;;7.70;99.90;;;;;;5014981;28;20128;-71
2024/03/16 06:11:58;;;;;;;4.32;1.10;;;7.60;99.90;;;;;;5014158;28;20038;-72
2024/03/16 06:14:25;;;;;;;6.28;1.40;;;7.60;99.90;;;;;;5015105;28;20077;-72
2024/03/16 06:16:53;;;;;;;4.20;1.23;;;7.60;99.90;;;;;;5015075;28;20096;-72
2024/03/16 06:19:20;;;;;;;4.55;1.83;;;7.60;99.90;;;;;;5013718;28;20045;-71
2024/03/16 06:21:47;;;;;;;7.18;1.90;;;7.60;99.90;;;;;;5014699;28;20050;-72
2024/03/16 06:24:14;;;;;;;9.02;1.92;;;7.60;99.90;;;;;;5013655;28;20045;-72
2024/03/16 06:26:49;;;;;;;6.35;1.90;;;7.60;99.90;;;;;;5013174;28;20144;-72
2024/03/16 06:29:18;;;;;;;9.38;2.03;;;7.60;99.90;;;;;;5013309;28;20135;-72
2024/03/16 06:31:48;;;;;;;7.38;2.33;;;7.70;99.90;;;;;;5013358;28;20120;-72
2024/03/16 06:34:15;;;;;;;6.82;1.70;;;7.70;99.90;;;;;;5013322;28;20053;-72
2024/03/16 06:36:42;;;;;;;5.00;1.55;;;7.70;99.90;;;;;;5014338;28;20052;-72
2024/03/16 06:39:12;;;;;;;9.13;3.03;;;7.80;99.90;;;;;;5013447;28;20439;-72
2024/03/16 06:41:39;;;;;;;6.78;1.45;;;7.80;99.90;;;;;;4997490;28;20038;-72
2024/03/16 06:44:06;;;;;;;5.63;1.98;;;7.80;99.90;;;;;;5013252;28;20046;-72
2024/03/16 06:46:33;;;;;;;10.23;2.80;;;7.90;99.90;;;;;;5014150;28;20038;-72
2024/03/16 06:49:05;;;;;;;10.23;2.35;;;7.90;99.90;;;;;;5014388;28;20483;-72
2024/03/16 06:51:33;;;;;;;5.68;1.92;;;8.00;99.90;;;;;;5012913;28;20058;-72
2024/03/16 06:54:00;;;;;;;12.63;2.58;;;7.90;99.90;;;;;;4996979;28;20046;-72
2024/03/16 06:56:27;;;;;;;6.25;1.30;;;7.90;99.90;;;;;;5014236;28;20082;-72
2024/03/16 06:58:54;;;;;;;5.32;1.45;;;7.90;99.90;;;;;;5012969;28;20488;-72
2024/03/16 07:01:24;;;;;;;3.50;1.83;;;7.90;99.90;;;;;;5014175;28;20100;-72
2024/03/16 07:03:53;;;;;;;9.65;2.45;;;8.00;99.90;;;;;;5012663;28;20038;-71
2024/03/16 07:06:20;;;;;;;4.50;2.28;;;8.00;99.90;;;;;;5014158;28;20381;-71
2024/03/16 07:08:47;;;;;;;5.43;1.17;;;8.10;99.90;;;;;;5013621;28;20054;-71
2024/03/16 07:11:15;;;;;;;4.32;2.03;;;8.10;99.90;;;;;;5013896;28;20439;-72
2024/03/16 07:13:42;;;;;;;5.40;1.40;;;8.10;99.90;;;;;;5012415;28;20549;-71
2024/03/16 07:16:13;;;;;;;4.55;1.38;;;8.10;99.90;;;;;;5012697;28;20045;-71
2024/03/16 07:18:44;;;;;;;3.78;1.42;;;8.30;99.90;;;;;;5013872;28;20088;-71
2024/03/16 07:21:11;;;;;;;;;;;8.20;99.90;;;;;;5014218;28;20399;-71
2024/03/16 07:23:39;;;;;;;5.97;1.38;;;8.20;99.90;;;;;;5045195;28;20008;-71
2024/03/16 07:26:07;;;;;;;3.47;1.30;;;8.20;99.90;;;;;;5012419;28;20041;-71
2024/03/16 07:28:34;;;;;;;4.43;1.10;;;8.30;99.90;;;;;;5013288;28;20137;-72
2024/03/16 07:31:03;;;;;;;6.57;2.45;;;8.30;99.90;;;;;;5013685;28;20117;-71
2024/03/16 07:33:30;;;;;;;7.03;1.75;;;8.30;99.90;;;;;;5012555;28;20100;-71
2024/03/16 07:35:58;;;;;;;10.98;1.73;;;8.40;99.90;;;;;;5013336;28;20100;-71
2024/03/16 07:38:25;;;;;;;5.28;2.17;;;8.40;99.90;;;;;;5013409;28;20046;-71
2024/03/16 07:40:52;;;;;;;2.95;1.35;;;8.50;99.90;;;;;;5012010;28;20041;-72
2024/03/16 07:43:19;;;;;;;5.65;2.42;;;8.50;99.90;;;;;;4995810;28;20046;-71
2024/03/16 07:45:50;;;;;;;2.95;1.02;;;8.50;99.90;;;;;;5011851;28;20479;-71
2024/03/16 07:48:17;;;;;;;3.67;1.20;;;8.60;99.90;;;;;;5013307;28;20042;-71
2024/03/16 07:50:44;;;;;;;10.23;1.55;;;8.70;99.90;;;;;;5011833;28;20042;-71
2024/03/16 07:53:11;;;;;;;7.68;1.58;;;8.70;99.90;;;;;;5013627;28;20046;-71
2024/03/16 07:55:38;;;;;;;4.03;1.17;;;8.80;99.90;;;;;;5011624;28;20045;-71
2024/03/16 07:58:05;;;;;;;1.88;0.93;;;8.90;99.90;;;;;;5011946;28;20099;-71
2024/03/16 08:00:32;;;;;;;5.72;1.70;;;8.90;99.90;;;;;;5013164;28;20048;-71
2024/03/16 08:03:00;;;;;;;3.80;1.13;;;8.90;99.90;;;;;;5011488;28;20060;-71
2024/03/16 08:05:27;;;;;;;6.60;1.92;;;9.00;99.90;;;;;;5011817;28;20380;-71
2024/03/16 08:07:54;;;;;;;4.97;1.23;;;9.10;99.90;;;;;;5011751;28;20487;-71
2024/03/16 08:10:22;;;;;;;3.80;1.45;;;9.10;99.90;;;;;;5011828;28;20562;-71
2024/03/16 08:12:49;;;;;;;3.00;2.05;;;9.20;99.90;;;;;;5012806;28;20448;-71
2024/03/16 08:15:17;;;;;;;1.02;0.68;;;9.20;99.90;;;;;;5012949;28;20064;-71
2024/03/16 08:17:44;;;;;;;3.38;1.83;;;9.20;99.90;;;;;;5011541;28;20454;-71
2024/03/16 08:20:12;;;;;;;4.15;1.38;;;9.20;99.90;;;;;;5012657;28;20038;-71
2024/03/16 08:22:41;;;;;;;4.88;1.10;;;9.30;99.90;;;;;;5011996;28;20495;-71
2024/03/16 08:25:10;;;;;;;6.40;1.33;;;9.30;99.90;;;;;;4995206;28;20053;-71
2024/03/16 08:27:37;;;;;;;6.68;2.10;;;9.40;99.90;;;;;;5012749;28;20129;-72
2024/03/16 08:30:05;;;;;;;3.28;1.02;;;9.50;99.90;;;;;;5011347;28;20069;-71
2024/03/16 08:32:32;;;;;;;2.78;1.02;;;9.50;99.90;;;;;;5012888;28;20483;-71
2024/03/16 08:34:59;;;;;;;3.20;1.00;;;9.60;99.90;;;;;;5012398;28;20052;-71
2024/03/16 08:37:25;;;;;;;1.95;1.02;;;9.70;99.90;;;;;;5011616;28;20053;-71
2024/03/16 08:39:53;;;;;;;3.72;1.42;;;9.70;99.90;;;;;;5011088;28;20034;-71
2024/03/16 08:42:20;;;;;;;3.15;2.75;;;9.80;99.90;;;;;;4994845;28;20443;-71
2024/03/16 08:44:47;;;;;;;5.80;0.80;;;9.80;99.90;;;;;;5012389;28;20177;-71
2024/03/16 08:47:14;;;;;;;3.78;1.13;;;9.90;99.90;;;;;;5012568;28;20096;-71
2024/03/16 08:49:41;;;;;;;2.45;0.80;;;9.90;99.90;;;;;;5011223;28;20046;-71
2024/03/16 08:52:08;;;;;;;2.15;0.60;;;9.90;99.90;;;;;;5011024;28;20488;-71
2024/03/16 08:54:35;;;;;;;4.50;0.90;;;9.80;99.90;;;;;;5011508;28;20060;-71
2024/03/16 08:57:04;;;;;;;2.33;0.95;;;9.80;99.90;;;;;;5011073;28;20056;-71
2024/03/16 08:59:31;;;;;;;5.95;2.42;;;9.80;99.90;;;;;;5012492;28;20042;-71
2024/03/16 09:01:59;;;;;;;5.20;1.70;;;9.90;99.90;;;;;;5010795;28;20054;-71
2024/03/16 09:04:26;;;;;;;8.20;1.58;;;10.00;99.90;;;;;;5012297;28;20072;-71
2024/03/16 09:06:53;;;;;;;7.78;1.10;;;10.10;99.90;;;;;;5010895;28;20049;-71
2024/03/16 09:09:21;;;;;;;1.98;0.57;;;10.20;99.90;;;;;;5011087;28;20117;-71
2024/03/16 09:11:49;;;;;;;2.38;1.08;;;10.40;99.90;;;;;;5010741;28;20046;-71
2024/03/16 09:14:16;;;;;;;3.70;1.27;;;10.60;99.90;;;;;;5012688;28;20125;-71
2024/03/16 09:16:43;;;;;;;6.25;2.13;;;10.90;99.90;;;;;;4994764;28;20408;-71
2024/03/16 09:19:10;;;;;;;5.07;2.10;;;11.10;99.90;;;;;;5010654;28;20399;-71
2024/03/16 09:21:38;;;;;;;4.60;1.80;;;11.20;99.90;;;;;;5011043;28;20537;-71
2024/03/16 09:24:06;;;;;;;5.05;0.95;;;11.20;99.90;;;;;;5010868;28;20034;-71
2024/03/16 09:26:34;;;;;;;3.03;0.93;;;11.10;99.90;;;;;;5012244;28;20496;-71
2024/03/16 09:29:01;;;;;;;7.05;2.22;;;11.10;99.90;;;;;;5010720;28;20054;-71
2024/03/16 09:31:28;;;;;;;3.13;1.00;;;11.00;99.90;;;;;;5010705;28;20502;-71
2024/03/16 09:33:56;;;;;;;1.58;1.10;;;11.10;99.90;;;;;;5014101;28;20045;-71
2024/03/16 09:36:23;;;;;;;5.15;0.77;;;11.40;99.90;;;;;;4998492;28;20057;-71
2024/03/16 09:38:50;;;;;;;2.63;1.23;;;11.70;99.90;;;;;;5014550;28;20042;-71
2024/03/16 09:41:20;;;;;;;2.83;1.25;;;12.40;98.80;;;;;;4998117;28;20495;-71
2024/03/16 09:43:47;;;;;;;2.75;0.80;;;13.20;98.00;;;;;;5014447;28;20038;-71
2024/03/16 09:46:14;;;;;;;3.22;0.95;;;14.20;96.70;;;;;;5014157;28;20049;-71
2024/03/16 09:48:41;;;;;;;4.53;0.95;;;14.80;95.70;;;;;;5014355;28;20034;-72
2024/03/16 09:51:15;;;;;;;5.30;1.25;;;15.20;94.60;;;;;;4997888;28;20526;-72
2024/03/16 09:53:41;;;;;;;4.50;0.88;;;15.30;91.30;;;;;;5014266;28;20045;-71
2024/03/16 09:56:11;;;;;;;4.35;1.40;;;15.10;91.00;;;;;;5014017;28;20096;-71
2024/03/16 09:58:38;;;;;;;3.63;1.02;;;14.70;90.60;;;;;;4997748;28;20053;-71
2024/03/16 10:01:05;;;;;;;1.75;0.80;;;14.10;90.70;;;;;;4997564;28;20041;-70
2024/03/16 10:03:32;;;;;;;2.92;1.30;;;13.50;90.40;;;;;;5014270;28;20100;-71
2024/03/16 10:06:05;;;;;;;5.20;1.08;;;12.90;91.20;;;;;;5013831;28;20045;-71
2024/03/16 10:08:32;;;;;;;4.70;1.10;;;12.50;91.20;;;;;;4982516;28;20049;-71
2024/03/16 10:11:14;;;;;;;6.82;1.67;;;12.00;91.30;;;;;;4997512;28;20443;-71
2024/03/16 10:13:57;;;;;;;4.22;1.05;;;11.70;91.60;;;;;;4997629;28;20041;-71
2024/03/16 10:16:26;;;;;;;2.25;0.95;;;11.60;92.20;;;;;;5013900;28;20045;-71
2024/03/16 10:18:55;;;;;;;3.97;0.82;;;11.60;92.80;;;;;;4997503;28;20042;-70
2024/03/16 10:21:21;;;;;;;4.85;1.00;;;11.70;92.80;;;;;;5013644;28;20113;-71
2024/03/16 10:23:47;;;;;;;4.20;0.82;;;12.00;93.10;;;;;;4997372;28;20041;-71
2024/03/16 10:26:14;;;;;;;3.70;1.23;;;12.70;92.50;;;;;;4979365;28;20065;-71
2024/03/16 10:28:43;;;;;;;1.00;0.50;;;13.40;92.00;;;;;;4995146;28;20041;-71
2024/03/16 10:31:10;;;;;;;4.43;1.48;;;14.00;90.30;;;;;;4980593;28;20046;-71
2024/03/16 10:33:38;;;;;;;2.88;1.23;;;14.10;89.90;;;;;;5013250;28;20065;-71
2024/03/16 10:36:05;;;;;;;3.92;1.05;;;14.00;90.20;;;;;;4996552;28;20046;-71
2024/03/16 10:38:31;;;;;;;1.55;1.08;;;13.80;87.90;;;;;;4981036;28;20050;-71
2024/03/16 10:41:00;;;;;;;3.08;0.77;;;13.50;88.60;;;;;;5013140;28;20042;-71
2024/03/16 10:43:30;;;;;;;1.85;0.55;;;13.60;89.10;;;;;;4980886;28;20093;-71
2024/03/16 10:45:57;;;;;;;2.53;1.10;;;13.80;89.20;;;;;;4996792;28;20089;-71
2024/03/16 10:48:25;;;;;;;1.85;0.45;;;14.00;88.20;;;;;;4997252;28;20081;-71
2024/03/16 10:50:53;;;;;;;5.57;1.33;;;14.00;87.50;;;;;;5013154;28;20095;-71
2024/03/16 10:53:20;;;;;;;2.40;0.63;;;13.90;86.80;;;;;;4996681;28;20562;-71
2024/03/16 10:55:48;;;;;;;2.63;0.60;;;13.90;86.60;;;;;;5029788;28;20095;-71
2024/03/16 10:58:22;;;;;;;1.70;0.38;;;14.10;86.90;;;;;;4996608;28;20042;-71
2024/03/16 11:00:50;;;;;;;3.58;0.90;;;14.20;86.00;;;;;;5012978;28;20480;-71
2024/03/16 11:03:27;;;;;;;8.88;1.08;;;14.50;85.60;;;;;;4980495;28;20057;-71
2024/03/16 11:06:01;;;;;;;7.47;1.30;;;14.80;86.00;;;;;;4998208;28;20088;-71
2024/03/16 11:08:37;;;;;;;3.80;1.00;;;14.70;85.80;;;;;;4996348;28;20108;-71
2024/03/16 11:11:04;;;;;;;4.53;1.23;;;14.20;86.10;;;;;;4996297;28;20046;-71
2024/03/16 11:13:31;;;;;;;1.77;1.20;;;14.00;88.80;;;;;;4996590;28;20395;-71
2024/03/16 11:15:57;;;;;;;3.63;0.90;;;14.50;88.70;;;;;;5012867;28;20057;-71
2024/03/16 11:18:26;;;;;;;8.27;1.65;;;15.50;87.90;;;;;;5012449;28;20046;-71
2024/03/16 11:20:53;;;;;;;3.67;0.70;;;16.70;86.00;;;;;;5012931;28;20038;-71
2024/03/16 11:23:28;;;;;;;7.25;0.68;;;17.60;83.00;;;;;;5012221;28;20041;-72
2024/03/16 11:26:18;;;;;;;4.00;1.00;;;18.50;79.30;;;;;;4996446;28;20048;-72
2024/03/16 11:28:46;;;;;;;3.13;1.13;;;18.90;79.40;;;;;;4996225;28;20450;-72
2024/03/16 11:31:36;;;;;;;3.92;1.33;;;19.40;77.10;;;;;;5012372;28;20041;-71
2024/03/16 11:34:13;;;;;;;2.75;0.68;;;19.60;74.40;;;;;;5045718;28;20114;-71
2024/03/16 11:36:51;;;;;;;4.57;1.15;;;19.60;74.40;;;;;;4979984;28;20160;-71
2024/03/16 11:39:24;;;;;;;3.20;0.77;;;20.00;74.00;;;;;;5012077;28;20038;-72
2024/03/16 11:41:58;;;;;;;3.35;1.00;;;20.40;71.80;;;;;;4996970;28;20137;-71
2024/03/16 11:44:25;;;;;;;3.78;0.85;;;20.20;71.60;;;;;;4995778;28;20157;-71
2024/03/16 11:46:53;;;;;;;4.00;1.75;;;19.30;73.30;;;;;;5012261;28;20052;-71
2024/03/16 11:49:21;;;;;;;3.10;1.02;;;18.30;75.30;;;;;;4995931;28;20046;-71
2024/03/16 11:51:56;;;;;;;2.75;1.27;;;17.70;76.50;;;;;;5012113;28;20403;-71
2024/03/16 11:54:26;;;;;;;4.22;1.27;;;17.80;76.80;;;;;;4995371;28;20049;-70
2024/03/16 11:56:52;;;;;;;3.15;0.75;;;17.60;75.90;;;;;;4994849;28;20119;-71
2024/03/16 11:59:19;;;;;;;4.90;1.10;;;17.20;76.00;;;;;;4995363;28;20049;-71
2024/03/16 12:01:50;;;;;;;3.72;1.10;;;17.20;76.60;;;;;;5011984;28;20034;-71
2024/03/16 12:04:20;;;;;;;5.18;1.45;;;17.30;76.70;;;;;;4996365;28;20386;-70
2024/03/16 12:06:50;;;;;;;2.10;0.82;;;17.20;76.90;;;;;;4979883;28;20050;-71
2024/03/16 12:09:18;;;;;;;3.42;1.35;;;16.80;76.90;;;;;;4995373;28;20061;-70
2024/03/16 12:11:48;;;;;;;6.57;1.00;;;16.70;76.60;;;;;;5011798;28;20483;-70
2024/03/16 12:14:18;;;;;;;2.25;1.10;;;16.80;76.50;;;;;;4995184;28;20050;-71
2024/03/16 12:16:48;;;;;;;4.07;1.13;;;17.10;75.70;;;;;;4979192;28;20050;-70
2024/03/16 12:19:14;;;;;;;2.47;1.10;;;17.20;74.90;;;;;;5011399;28;20042;-70
2024/03/16 12:21:42;;;;;;;3.58;0.82;;;16.90;75.40;;;;;;4995280;28;20046;-70
2024/03/16 12:24:12;;;;;;;4.75;1.10;;;16.30;76.10;;;;;;4995375;28;20479;-71
2024/03/16 12:26:45;;;;;;;;;;;15.90;77.10;;;;;;4995613;28;20483;-70
2024/03/16 12:29:20;;;;;;;6.55;1.05;;;16.20;76.50;;;;;;5011344;28;19933;-71
2024/03/16 12:31:55;;;;;;;5.68;1.05;;;16.90;74.70;;;;;;4995209;28;20038;-71
2024/03/16 12:34:24;;;;;;;3.03;0.70;;;17.60;73.30;;;;;;4995762;28;20042;-71
2024/03/16 12:36:50;;;;;;;2.28;1.02;;;18.10;71.80;;;;;;4994920;28;20053;-71
2024/03/16 12:39:16;;;;;;;3.55;1.13;;;18.60;72.20;;;;;;5010949;28;20053;-71
2024/03/16 12:41:42;;;;;;;5.00;1.00;;;19.10;70.80;;;;;;4995065;28;20042;-70
2024/03/16 12:44:09;;;;;;;3.75;0.93;;;18.90;71.10;;;;;;4993654;28;20060;-70
2024/03/16 12:46:36;;;;;;;5.20;1.15;;;18.30;71.40;;;;;;4993843;28;20042;-70
2024/03/16 12:49:02;;;;;;;6.68;1.67;;;17.40;72.40;;;;;;5010801;28;20070;-70
2024/03/16 12:51:29;;;;;;;4.70;2.00;;;16.70;73.30;;;;;;4993898;28;20085;-70
2024/03/16 12:53:55;;;;;;;12.23;1.85;;;16.20;74.10;;;;;;5010688;28;20511;-70